Time;durP1;ratioP1;P1;durP2;ratioP2;P2;SDS_P1;SDS_P2;PMS_P1;PMS_P2;Temp;Humidity;BMP_temperature;BMP_pressure;BME280_temperature;BME280_humidity;BME280_pressure;Samples;Min_cycle;Max_cycle;Signal;HPM_P1;HPM_P2
2022/04/05 00:00:34;;;;;;;16.60;14.25;;;5.90;99.90;;;;;;2071476;28;20140;-69
2022/04/05 00:01:35;;;;;;;16.27;14.10;;;5.90;99.90;;;;;;2071763;28;20040;-69
2022/04/05 00:02:35;;;;;;;16.45;14.25;;;5.90;99.90;;;;;;2062921;28;20478;-69
2022/04/05 00:03:36;;;;;;;17.88;14.82;;;5.90;99.90;;;;;;2062983;28;20097;-70
2022/04/05 00:04:37;;;;;;;16.13;14.35;;;5.90;99.90;;;;;;2071177;28;20283;-69
2022/04/05 00:05:38;;;;;;;16.55;14.10;;;5.90;99.90;;;;;;2071128;28;20041;-69
2022/04/05 00:06:38;;;;;;;17.02;14.77;;;5.80;99.90;;;;;;2071608;28;20061;-70
2022/04/05 00:07:39;;;;;;;17.20;15.23;;;5.90;99.90;;;;;;2071562;28;20030;-70
2022/04/05 00:08:40;;;;;;;17.60;15.30;;;5.80;99.90;;;;;;2071226;28;20030;-69
2022/04/05 00:09:41;;;;;;;17.60;15.00;;;5.80;99.90;;;;;;2071683;28;20634;-70
2022/04/05 00:10:42;;;;;;;17.23;15.32;;;5.80;99.90;;;;;;2075029;28;20017;-70
2022/04/05 00:11:43;;;;;;;17.10;14.85;;;5.80;99.90;;;;;;2075045;28;20118;-69
2022/04/05 00:12:43;;;;;;;17.27;15.00;;;5.70;99.90;;;;;;2071304;28;20057;-69
2022/04/05 00:13:44;;;;;;;17.65;15.00;;;5.80;99.90;;;;;;2061241;28;20122;-70
2022/04/05 00:14:44;;;;;;;16.98;15.02;;;5.80;99.90;;;;;;2064716;28;20037;-69
2022/04/05 00:15:45;;;;;;;18.13;15.38;;;5.70;99.90;;;;;;2059666;28;20027;-69
2022/04/05 00:16:46;;;;;;;18.33;15.65;;;5.70;99.90;;;;;;2064590;28;20022;-68
2022/04/05 00:17:47;;;;;;;18.55;16.33;;;5.70;99.90;;;;;;2079119;28;20124;-69
2022/04/05 00:18:47;;;;;;;18.30;15.70;;;5.70;99.90;;;;;;2078909;28;20032;-69
2022/04/05 00:19:48;;;;;;;17.85;15.50;;;5.60;99.90;;;;;;2069313;28;20721;-69
2022/04/05 00:20:49;;;;;;;19.65;15.90;;;5.60;99.90;;;;;;2070908;28;20030;-70
2022/04/05 00:21:50;;;;;;;18.83;16.27;;;5.60;99.90;;;;;;2069443;28;20030;-69
2022/04/05 00:22:51;;;;;;;18.95;15.57;;;5.60;99.90;;;;;;2071196;28;20092;-69
2022/04/05 00:23:51;;;;;;;18.30;16.25;;;5.60;99.90;;;;;;2069216;28;20022;-69
2022/04/05 00:24:52;;;;;;;18.38;15.90;;;5.50;99.90;;;;;;2072019;28;20046;-70
2022/04/05 00:25:53;;;;;;;19.85;16.52;;;5.60;99.90;;;;;;2069761;28;20463;-69
2022/04/05 00:26:55;;;;;;;19.13;16.13;;;5.50;99.90;;;;;;2071658;28;20092;-71
2022/04/05 00:27:55;;;;;;;21.45;16.80;;;5.50;99.90;;;;;;2069049;28;20603;-71
2022/04/05 00:28:56;;;;;;;20.23;17.23;;;5.50;99.90;;;;;;2070518;28;20029;-69
2022/04/05 00:29:59;;;;;;;20.83;17.27;;;5.50;99.90;;;;;;2069577;28;20022;-70
2022/04/05 00:31:00;;;;;;;21.55;17.20;;;5.50;99.90;;;;;;2071924;28;20040;-69
2022/04/05 00:32:00;;;;;;;20.67;17.88;;;5.40;99.90;;;;;;2071674;28;20041;-69
2022/04/05 00:33:01;;;;;;;20.30;17.05;;;5.40;99.90;;;;;;2071787;28;20557;-68
2022/04/05 00:34:02;;;;;;;21.75;17.55;;;5.40;99.90;;;;;;2077329;28;20123;-69
2022/04/05 00:35:03;;;;;;;20.92;17.48;;;5.40;99.90;;;;;;2071329;28;20026;-70
2022/04/05 00:36:04;;;;;;;20.83;17.50;;;5.40;99.90;;;;;;2069446;28;20053;-69
2022/04/05 00:37:05;;;;;;;22.40;17.63;;;5.40;99.90;;;;;;2071543;28;20068;-69
2022/04/05 00:38:08;;;;;;;20.88;17.38;;;5.40;99.90;;;;;;2069222;28;20151;-70
2022/04/05 00:39:09;;;;;;;21.10;17.70;;;5.40;99.90;;;;;;2072208;28;20034;-70
2022/04/05 00:40:11;;;;;;;21.38;17.50;;;5.30;99.90;;;;;;2070057;28;20021;-70
2022/04/05 00:41:11;;;;;;;23.30;18.33;;;5.30;99.90;;;;;;2071980;28;20040;-69
2022/04/05 00:42:12;;;;;;;20.92;17.50;;;5.30;99.90;;;;;;2070212;28;20505;-69
2022/04/05 00:43:13;;;;;;;21.77;18.55;;;5.30;99.90;;;;;;2080102;28;20037;-69
2022/04/05 00:44:15;;;;;;;22.38;18.67;;;5.30;99.90;;;;;;2078342;28;20112;-70
2022/04/05 00:45:16;;;;;;;21.75;18.17;;;5.30;99.90;;;;;;2072732;28;20045;-70
2022/04/05 00:46:17;;;;;;;21.20;17.83;;;5.30;99.90;;;;;;2064808;28;20494;-70
2022/04/05 00:47:20;;;;;;;22.13;18.10;;;5.30;99.90;;;;;;2070717;28;20068;-70
2022/04/05 00:48:38;;;;;;;22.77;18.48;;;5.30;99.90;;;;;;2071291;28;20048;-69
2022/04/05 00:49:43;;;;;;;23.73;18.92;;;5.30;99.90;;;;;;2071386;28;20133;-69
2022/04/05 00:50:44;;;;;;;22.95;18.80;;;5.20;99.90;;;;;;2073578;28;20109;-69
2022/04/05 00:52:00;;;;;;;24.80;19.00;;;5.30;99.90;;;;;;2070869;28;20513;-70
2022/04/05 00:53:03;;;;;;;23.67;19.30;;;5.30;99.90;;;;;;2073402;28;20081;-70
2022/04/05 00:54:05;;;;;;;21.98;19.00;;;5.20;99.90;;;;;;2070550;28;20056;-69
2022/04/05 00:55:06;;;;;;;23.80;19.52;;;5.20;99.90;;;;;;2071857;28;20026;-71
2022/04/05 00:56:13;;;;;;;23.25;19.60;;;5.20;99.90;;;;;;2069271;28;20026;-71
2022/04/05 00:57:16;;;;;;;21.95;18.55;;;5.20;99.90;;;;;;2071284;28;20034;-71
2022/04/05 00:58:17;;;;;;;23.58;19.63;;;5.20;99.90;;;;;;2069426;28;20057;-71
2022/04/05 00:59:19;;;;;;;24.88;20.63;;;5.20;99.90;;;;;;2072052;28;20282;-69
2022/04/05 01:00:20;;;;;;;25.50;20.17;;;5.20;99.90;;;;;;2069932;28;20030;-70
2022/04/05 01:01:22;;;;;;;23.60;19.95;;;5.10;99.90;;;;;;2079319;28;20029;-71
2022/04/05 01:02:26;;;;;;;25.25;20.83;;;5.10;99.90;;;;;;2063110;28;20030;-70
2022/04/05 01:03:28;;;;;;;26.45;21.63;;;5.10;99.90;;;;;;2070160;28;20025;-70
2022/04/05 01:04:30;;;;;;;25.33;20.55;;;5.10;99.90;;;;;;2079170;28;20025;-70
2022/04/05 01:05:34;;;;;;;26.42;20.75;;;5.10;99.90;;;;;;2070227;28;20528;-69
2022/04/05 01:06:39;;;;;;;25.20;20.70;;;5.10;99.90;;;;;;2063620;28;20037;-71
2022/04/05 01:07:41;;;;;;;26.33;20.38;;;5.10;99.90;;;;;;2061630;28;20061;-70
2022/04/05 01:08:47;;;;;;;26.83;21.05;;;5.10;99.90;;;;;;2063599;28;20038;-70
2022/04/05 01:09:53;;;;;;;25.38;20.60;;;5.10;99.90;;;;;;2071629;28;20486;-70
2022/04/05 01:10:55;;;;;;;24.80;20.60;;;5.10;99.90;;;;;;2072931;28;20026;-69
2022/04/05 01:11:56;;;;;;;27.88;22.27;;;5.10;99.90;;;;;;2075349;28;20022;-70
2022/04/05 01:12:57;;;;;;;27.10;22.23;;;5.00;99.90;;;;;;2066887;28;20076;-70
2022/04/05 01:13:58;;;;;;;28.75;22.50;;;5.10;99.90;;;;;;2069689;28;20033;-70
2022/04/05 01:14:59;;;;;;;28.05;22.40;;;5.00;99.90;;;;;;2072140;28;20029;-70
2022/04/05 01:16:00;;;;;;;26.00;21.67;;;5.00;99.90;;;;;;2069434;28;20030;-68
2022/04/05 01:17:01;;;;;;;25.35;21.40;;;5.00;99.90;;;;;;2071405;28;20061;-71
2022/04/05 01:18:02;;;;;;;31.75;23.00;;;5.00;99.90;;;;;;2070032;28;20018;-70
2022/04/05 01:19:03;;;;;;;27.73;22.50;;;5.00;99.90;;;;;;2071996;28;20022;-70
2022/04/05 01:20:04;;;;;;;26.50;21.75;;;5.00;99.90;;;;;;2070253;28;20099;-70
2022/04/05 01:21:06;;;;;;;25.80;21.77;;;5.00;99.90;;;;;;2071696;28;20044;-70
2022/04/05 01:22:06;;;;;;;26.65;21.58;;;5.00;99.90;;;;;;2071079;28;20029;-70
2022/04/05 01:23:07;;;;;;;26.27;22.23;;;5.00;99.90;;;;;;2071746;28;20048;-70
2022/04/05 01:24:12;;;;;;;28.08;22.70;;;5.00;99.90;;;;;;2070397;28;20026;-69
2022/04/05 01:25:18;;;;;;;27.55;22.60;;;5.00;99.90;;;;;;2079442;28;20037;-70
2022/04/05 01:26:18;;;;;;;26.83;22.48;;;5.00;99.90;;;;;;2076862;28;20026;-70
2022/04/05 01:27:19;;;;;;;29.35;23.58;;;5.00;99.90;;;;;;2072115;28;20096;-70
2022/04/05 01:28:20;;;;;;;28.40;22.65;;;5.00;99.90;;;;;;2069385;28;20041;-70
2022/04/05 01:29:23;;;;;;;28.50;22.80;;;4.90;99.90;;;;;;2071213;28;20034;-70
2022/04/05 01:30:24;;;;;;;26.75;21.98;;;4.90;99.90;;;;;;2070460;28;20030;-70
2022/04/05 01:31:25;;;;;;;26.95;21.77;;;5.00;99.90;;;;;;2071237;28;20121;-69
2022/04/05 01:32:25;;;;;;;27.52;22.23;;;5.00;99.90;;;;;;2070736;28;20038;-70
2022/04/05 01:33:26;;;;;;;29.75;23.48;;;4.90;99.90;;;;;;2070851;28;20049;-70
2022/04/05 01:34:28;;;;;;;29.45;23.08;;;4.90;99.90;;;;;;2070963;28;20026;-70
2022/04/05 01:35:29;;;;;;;29.15;23.05;;;5.00;99.90;;;;;;2071908;28;20037;-69
2022/04/05 01:36:30;;;;;;;28.70;22.95;;;4.90;99.90;;;;;;2070869;28;20083;-71
2022/04/05 01:37:32;;;;;;;28.13;22.85;;;4.90;99.90;;;;;;2069639;28;20481;-70
2022/04/05 01:38:34;;;;;;;29.65;23.63;;;4.90;99.90;;;;;;2071181;28;20030;-70
2022/04/05 01:39:37;;;;;;;28.65;23.13;;;4.90;99.90;;;;;;2063490;28;20490;-69
2022/04/05 01:40:38;;;;;;;27.73;22.85;;;4.90;99.90;;;;;;2071273;28;20022;-70
2022/04/05 01:41:40;;;;;;;29.23;23.73;;;4.90;99.90;;;;;;2078902;28;20133;-70
2022/04/05 01:42:41;;;;;;;29.27;23.73;;;4.90;99.90;;;;;;2062805;28;20032;-70
2022/04/05 01:43:41;;;;;;;26.15;21.33;;;4.90;99.90;;;;;;2060914;28;20034;-69
2022/04/05 01:44:43;;;;;;;28.30;22.42;;;4.90;99.90;;;;;;2072208;28;20018;-69
2022/04/05 01:45:44;;;;;;;27.75;22.52;;;4.90;99.90;;;;;;2085204;28;20030;-69
2022/04/05 01:46:45;;;;;;;26.67;21.60;;;4.90;99.90;;;;;;2071326;28;20468;-70
2022/04/05 01:47:47;;;;;;;27.05;22.30;;;4.90;99.90;;;;;;2069809;28;20033;-69
2022/04/05 01:48:47;;;;;;;27.88;21.95;;;4.90;99.90;;;;;;2070731;28;20038;-70
2022/04/05 01:49:51;;;;;;;28.65;22.55;;;4.90;99.90;;;;;;2069523;28;20026;-70
2022/04/05 01:50:52;;;;;;;26.98;22.50;;;4.90;99.90;;;;;;2071321;28;20110;-70
2022/04/05 01:51:53;;;;;;;26.10;21.58;;;4.90;99.90;;;;;;2068764;28;20034;-70
2022/04/05 01:52:54;;;;;;;26.20;21.48;;;4.90;99.90;;;;;;2070608;28;20030;-70
2022/04/05 01:53:57;;;;;;;25.67;20.95;;;4.90;99.90;;;;;;2069667;28;20685;-71
2022/04/05 01:54:58;;;;;;;26.60;21.77;;;4.90;99.90;;;;;;2071341;28;20033;-70
2022/04/05 01:55:58;;;;;;;26.33;21.40;;;4.90;99.90;;;;;;2069223;28;20548;-70
2022/04/05 01:56:59;;;;;;;27.92;21.90;;;4.90;99.90;;;;;;2071011;28;20030;-70
2022/04/05 01:58:01;;;;;;;27.33;21.15;;;4.90;99.90;;;;;;2071187;28;20034;-70
2022/04/05 01:59:01;;;;;;;26.58;21.48;;;4.90;99.90;;;;;;2070656;28;20485;-70
2022/04/05 02:00:05;;;;;;;25.10;20.30;;;4.90;99.90;;;;;;2070306;28;20140;-70
2022/04/05 02:01:12;;;;;;;27.00;21.80;;;4.90;99.90;;;;;;2070649;28;20052;-69
2022/04/05 02:02:13;;;;;;;28.08;22.05;;;4.90;99.90;;;;;;2071206;28;20060;-70
2022/04/05 02:03:14;;;;;;;26.10;21.40;;;4.90;99.90;;;;;;2070904;28;20034;-70
2022/04/05 02:04:15;;;;;;;28.80;21.38;;;4.90;99.90;;;;;;2070601;28;20061;-70
2022/04/05 02:05:16;;;;;;;27.60;21.30;;;4.80;99.90;;;;;;2071340;28;20026;-70
2022/04/05 02:06:16;;;;;;;27.88;21.92;;;4.90;99.90;;;;;;2071140;28;20050;-69
2022/04/05 02:07:18;;;;;;;25.60;20.58;;;4.90;99.90;;;;;;2071157;28;20089;-70
2022/04/05 02:08:19;;;;;;;25.15;20.20;;;4.90;99.90;;;;;;2078078;28;20041;-70
2022/04/05 02:09:20;;;;;;;25.80;20.35;;;4.80;99.90;;;;;;2070502;28;20033;-70
2022/04/05 02:10:21;;;;;;;24.88;21.02;;;4.90;99.90;;;;;;2062828;28;20057;-70
2022/04/05 02:11:22;;;;;;;25.42;20.70;;;4.90;99.90;;;;;;2072075;28;20060;-69
2022/04/05 02:12:26;;;;;;;25.08;20.35;;;4.90;99.90;;;;;;2079904;28;20025;-70
2022/04/05 02:13:41;;;;;;;23.90;19.23;;;4.90;99.90;;;;;;2078362;28;20535;-69
2022/04/05 02:14:42;;;;;;;24.25;20.20;;;4.90;99.90;;;;;;2072599;28;20025;-69
2022/04/05 02:15:47;;;;;;;26.63;20.98;;;4.90;99.90;;;;;;2079957;28;20036;-69
2022/04/05 02:16:48;;;;;;;24.35;19.65;;;4.90;99.90;;;;;;2071734;28;20045;-69
2022/04/05 02:17:50;;;;;;;23.77;20.08;;;4.90;99.90;;;;;;2071647;28;20037;-69
2022/04/05 02:18:56;;;;;;;23.77;19.33;;;4.90;99.90;;;;;;2064223;28;20160;-69
2022/04/05 02:19:58;;;;;;;25.92;20.13;;;4.90;99.90;;;;;;2072244;28;20026;-69
2022/04/05 02:21:00;;;;;;;23.80;19.73;;;4.90;99.90;;;;;;2072128;28;20025;-70
2022/04/05 02:22:01;;;;;;;24.50;20.05;;;4.90;99.90;;;;;;2072038;28;20028;-71
2022/04/05 02:23:04;;;;;;;23.83;19.67;;;4.90;99.90;;;;;;2080115;28;20056;-68
2022/04/05 02:24:15;;;;;;;24.77;19.52;;;4.90;99.90;;;;;;2078861;28;20040;-71
2022/04/05 02:25:17;;;;;;;23.08;18.63;;;4.90;99.90;;;;;;2080105;28;20025;-70
2022/04/05 02:26:18;;;;;;;23.17;18.92;;;4.90;99.90;;;;;;2071649;28;20034;-70
2022/04/05 02:27:23;;;;;;;22.95;18.70;;;4.90;99.90;;;;;;2071831;28;20037;-70
2022/04/05 02:28:25;;;;;;;23.75;19.15;;;4.90;99.90;;;;;;2063305;28;20116;-69
2022/04/05 02:29:29;;;;;;;23.10;18.73;;;4.90;99.90;;;;;;2071681;28;20050;-70
2022/04/05 02:30:38;;;;;;;22.92;18.50;;;4.90;99.90;;;;;;2071538;28;20037;-70
2022/04/05 02:31:41;;;;;;;22.20;18.38;;;5.00;99.90;;;;;;2072262;28;20037;-70
2022/04/05 02:32:44;;;;;;;21.60;18.00;;;4.90;99.90;;;;;;2071700;28;20026;-69
2022/04/05 02:33:46;;;;;;;20.77;17.95;;;4.90;99.90;;;;;;2071826;28;20509;-70
2022/04/05 02:34:55;;;;;;;21.23;17.70;;;4.90;99.90;;;;;;2079903;28;20021;-69
2022/04/05 02:35:56;;;;;;;23.88;18.73;;;5.00;99.90;;;;;;2080242;28;20021;-70
2022/04/05 02:36:57;;;;;;;22.63;18.65;;;4.90;99.90;;;;;;2080258;28;20488;-70
2022/04/05 02:38:02;;;;;;;21.73;18.25;;;4.90;99.90;;;;;;2072047;28;20149;-69
2022/04/05 02:39:07;;;;;;;21.50;17.80;;;4.90;99.90;;;;;;2064355;28;20081;-70
2022/04/05 02:40:10;;;;;;;22.10;17.92;;;4.90;99.90;;;;;;2063745;28;20046;-71
2022/04/05 02:41:11;;;;;;;21.00;17.58;;;4.90;99.90;;;;;;2071585;28;20124;-70
2022/04/05 02:42:13;;;;;;;21.25;17.50;;;4.90;99.90;;;;;;2079765;28;20033;-70
2022/04/05 02:43:15;;;;;;;21.38;17.92;;;4.90;99.90;;;;;;2071739;28;20038;-70
2022/04/05 02:44:17;;;;;;;21.80;17.90;;;4.90;99.90;;;;;;2071649;28;20440;-70
2022/04/05 02:45:18;;;;;;;21.60;18.02;;;4.90;99.90;;;;;;2071772;28;20037;-70
2022/04/05 02:46:20;;;;;;;20.58;17.17;;;4.90;99.90;;;;;;2079670;28;20523;-70
2022/04/05 02:47:22;;;;;;;21.25;17.20;;;4.90;99.90;;;;;;2071716;28;20040;-70
2022/04/05 02:48:25;;;;;;;21.08;17.00;;;4.80;99.90;;;;;;2071572;28;20033;-69
2022/04/05 02:49:27;;;;;;;20.60;16.95;;;4.80;99.90;;;;;;2064207;28;20030;-70
2022/04/05 02:50:28;;;;;;;19.77;16.63;;;4.80;99.90;;;;;;2065137;28;20545;-69
2022/04/05 02:51:29;;;;;;;20.55;16.77;;;4.80;99.90;;;;;;2073145;28;20125;-69
2022/04/05 02:52:32;;;;;;;19.83;16.55;;;4.80;99.90;;;;;;2072763;28;20034;-69
2022/04/05 02:53:36;;;;;;;20.27;16.67;;;4.80;99.90;;;;;;2080183;28;20041;-69
2022/04/05 02:54:37;;;;;;;20.73;16.42;;;4.80;99.90;;;;;;2080150;28;20159;-70
2022/04/05 02:55:39;;;;;;;19.30;16.48;;;4.80;99.90;;;;;;2071742;28;20109;-70
2022/04/05 02:56:40;;;;;;;18.77;16.42;;;4.80;99.90;;;;;;2071617;28;20436;-69
2022/04/05 02:57:44;;;;;;;21.23;16.80;;;4.80;99.90;;;;;;2072409;28;20022;-70
2022/04/05 02:58:51;;;;;;;19.77;16.75;;;4.80;99.90;;;;;;2063122;28;20127;-70
2022/04/05 02:59:54;;;;;;;19.40;15.85;;;4.80;99.90;;;;;;2064501;28;20033;-70
2022/04/05 03:00:55;;;;;;;20.20;16.15;;;4.80;99.90;;;;;;2071461;28;20032;-70
2022/04/05 03:01:57;;;;;;;19.52;16.17;;;4.80;99.90;;;;;;2071634;28;20079;-70
2022/04/05 03:02:57;;;;;;;18.73;16.05;;;4.80;99.90;;;;;;2072079;28;20026;-69
2022/04/05 03:03:58;;;;;;;20.23;15.60;;;4.70;99.90;;;;;;2072043;28;20022;-70
2022/04/05 03:05:00;;;;;;;19.60;15.80;;;4.70;99.90;;;;;;2072551;28;20730;-70
2022/04/05 03:06:01;;;;;;;18.73;15.73;;;4.80;99.90;;;;;;2069192;28;20026;-69
2022/04/05 03:07:03;;;;;;;20.10;16.15;;;4.70;99.90;;;;;;2067413;28;20527;-70
2022/04/05 03:08:05;;;;;;;18.13;15.40;;;4.70;99.90;;;;;;2063680;28;20597;-70
2022/04/05 03:09:06;;;;;;;18.90;15.57;;;4.70;99.90;;;;;;2063438;28;20026;-70
2022/04/05 03:10:10;;;;;;;17.98;15.85;;;4.70;99.90;;;;;;2071364;28;20037;-70
2022/04/05 03:11:13;;;;;;;19.27;16.02;;;4.70;99.90;;;;;;2079182;28;20381;-70
2022/04/05 03:12:13;;;;;;;19.35;15.95;;;4.70;99.90;;;;;;2079762;28;20083;-69
2022/04/05 03:13:17;;;;;;;18.05;15.30;;;4.70;99.90;;;;;;2079356;28;20036;-70
2022/04/05 03:14:19;;;;;;;20.83;16.33;;;4.70;99.90;;;;;;2071540;28;20432;-70
2022/04/05 03:15:20;;;;;;;19.63;16.65;;;4.70;99.90;;;;;;2079550;28;20029;-70
2022/04/05 03:16:24;;;;;;;19.40;15.65;;;4.70;99.90;;;;;;2079331;28;20030;-69
2022/04/05 03:17:26;;;;;;;18.38;15.45;;;4.70;99.90;;;;;;2079753;28;20129;-70
2022/04/05 03:18:28;;;;;;;19.50;15.98;;;4.70;99.90;;;;;;2079217;28;20075;-70
2022/04/05 03:19:28;;;;;;;20.52;16.65;;;4.70;99.90;;;;;;2071522;28;20076;-70
2022/04/05 03:20:31;;;;;;;18.10;15.55;;;4.70;99.90;;;;;;2079305;28;20026;-70
2022/04/05 03:21:32;;;;;;;18.98;15.73;;;4.70;99.90;;;;;;2078510;28;20112;-70
2022/04/05 03:22:33;;;;;;;18.85;15.85;;;4.70;99.90;;;;;;2079228;28;20436;-70
2022/04/05 03:23:33;;;;;;;19.45;16.05;;;4.70;99.90;;;;;;2079734;28;20079;-70
2022/04/05 03:24:34;;;;;;;19.38;15.90;;;4.70;99.90;;;;;;2064113;28;20628;-69
2022/04/05 03:25:35;;;;;;;19.00;16.08;;;4.70;99.90;;;;;;2079537;28;20029;-69
2022/04/05 03:26:36;;;;;;;19.25;15.90;;;4.70;99.90;;;;;;2071366;28;20591;-70
2022/04/05 03:27:40;;;;;;;19.00;15.65;;;4.70;99.90;;;;;;2071494;28;20080;-69
2022/04/05 03:28:41;;;;;;;18.92;14.88;;;4.70;99.90;;;;;;2070378;28;20125;-70
2022/04/05 03:29:42;;;;;;;17.95;14.82;;;4.70;99.90;;;;;;2071266;28;20026;-70
2022/04/05 03:30:43;;;;;;;18.05;15.15;;;4.70;99.90;;;;;;2079336;28;20120;-70
2022/04/05 03:31:44;;;;;;;17.45;14.57;;;4.70;99.90;;;;;;2071332;28;20390;-71
2022/04/05 03:32:45;;;;;;;18.23;15.18;;;4.70;99.90;;;;;;2079525;28;20052;-71
2022/04/05 03:33:46;;;;;;;19.95;15.65;;;4.70;99.90;;;;;;2071278;28;20044;-71
2022/04/05 03:34:50;;;;;;;17.10;14.63;;;4.70;99.90;;;;;;2063193;28;20161;-71
2022/04/05 03:35:54;;;;;;;17.30;14.70;;;4.70;99.90;;;;;;2079524;28;20496;-70
2022/04/05 03:36:56;;;;;;;16.85;14.63;;;4.70;99.90;;;;;;2078951;28;20026;-71
2022/04/05 03:37:57;;;;;;;17.02;14.52;;;4.70;99.90;;;;;;2071285;28;20405;-71
2022/04/05 03:38:58;;;;;;;18.13;14.65;;;4.70;99.90;;;;;;2070754;28;20096;-70
2022/04/05 03:39:59;;;;;;;17.65;14.95;;;4.80;99.90;;;;;;2071153;28;20022;-70
2022/04/05 03:41:01;;;;;;;16.50;13.88;;;4.80;99.90;;;;;;2079510;28;20025;-71
2022/04/05 03:42:03;;;;;;;16.88;14.15;;;4.80;99.90;;;;;;2078927;28;20063;-71
2022/04/05 03:43:05;;;;;;;15.70;13.50;;;4.80;99.90;;;;;;2079454;28;20021;-71
2022/04/05 03:44:06;;;;;;;16.90;13.93;;;4.80;99.90;;;;;;2079231;28;20033;-71
2022/04/05 03:45:11;;;;;;;18.17;14.10;;;4.80;99.90;;;;;;2079333;28;20034;-71
2022/04/05 03:46:14;;;;;;;15.65;13.57;;;4.80;99.90;;;;;;2079072;28;20408;-71
2022/04/05 03:47:15;;;;;;;16.30;13.57;;;4.80;99.90;;;;;;2079346;28;20124;-71
2022/04/05 03:48:16;;;;;;;17.73;14.00;;;4.80;99.90;;;;;;2078878;28;20025;-71
2022/04/05 03:49:18;;;;;;;15.60;13.52;;;4.80;99.90;;;;;;2071128;28;21095;-71
2022/04/05 03:50:19;;;;;;;15.95;13.55;;;4.80;99.90;;;;;;2079182;28;20043;-71
2022/04/05 03:51:22;;;;;;;15.55;13.50;;;4.90;99.90;;;;;;2078945;28;20389;-71
2022/04/05 03:52:29;;;;;;;14.40;12.85;;;4.90;99.90;;;;;;2072179;28;20110;-71
2022/04/05 03:53:30;;;;;;;14.95;13.35;;;4.90;99.90;;;;;;2072377;28;20026;-71
2022/04/05 03:54:31;;;;;;;15.38;13.70;;;4.90;99.90;;;;;;2072277;28;20022;-73
2022/04/05 03:55:37;;;;;;;16.77;13.43;;;4.90;99.90;;;;;;2072254;28;20026;-71
2022/04/05 03:56:40;;;;;;;15.18;13.13;;;4.90;99.90;;;;;;2079209;28;20029;-71
2022/04/05 03:57:41;;;;;;;15.05;13.27;;;4.90;99.90;;;;;;2079310;28;20104;-72
2022/04/05 03:58:42;;;;;;;14.82;13.13;;;4.90;99.90;;;;;;2070639;28;20559;-71
2022/04/05 03:59:43;;;;;;;16.25;13.95;;;4.90;99.90;;;;;;2071118;28;20687;-72
2022/04/05 04:00:43;;;;;;;16.25;13.93;;;4.90;99.90;;;;;;2070994;28;20505;-72
2022/04/05 04:02:00;;;;;;;15.15;13.27;;;4.90;99.90;;;;;;2079403;28;20021;-72
2022/04/05 04:03:01;;;;;;;15.25;13.55;;;4.90;99.90;;;;;;2079383;28;20025;-71
2022/04/05 04:04:01;;;;;;;14.55;12.85;;;4.90;99.90;;;;;;2079217;28;20140;-71
2022/04/05 04:05:03;;;;;;;14.43;12.68;;;4.90;99.90;;;;;;2079130;28;20505;-71
2022/04/05 04:06:04;;;;;;;16.42;13.68;;;4.90;99.90;;;;;;2071136;28;20041;-71
2022/04/05 04:07:05;;;;;;;16.60;13.45;;;4.90;99.90;;;;;;2063589;28;20030;-70
2022/04/05 04:08:06;;;;;;;14.95;13.05;;;4.90;99.90;;;;;;2070657;28;20566;-71
2022/04/05 04:09:08;;;;;;;15.45;12.82;;;4.90;99.90;;;;;;2071097;28;20033;-71
2022/04/05 04:10:09;;;;;;;14.90;13.27;;;4.90;99.90;;;;;;2070683;28;20033;-71
2022/04/05 04:11:10;;;;;;;15.02;13.15;;;4.90;99.90;;;;;;2071103;28;20018;-70
2022/04/05 04:12:11;;;;;;;14.95;12.95;;;4.90;99.90;;;;;;2079186;28;20034;-70
2022/04/05 04:13:11;;;;;;;14.82;13.23;;;4.90;99.90;;;;;;2079010;28;20084;-70
2022/04/05 04:14:17;;;;;;;15.60;13.77;;;4.90;99.90;;;;;;2071019;28;20645;-71
2022/04/05 04:15:19;;;;;;;15.05;13.45;;;4.90;99.90;;;;;;2070951;28;20509;-72
2022/04/05 04:16:20;;;;;;;16.17;13.30;;;4.90;99.90;;;;;;2070804;28;20496;-69
2022/04/05 04:17:21;;;;;;;19.13;14.05;;;4.90;99.90;;;;;;2062925;28;20049;-71
2022/04/05 04:18:22;;;;;;;15.02;13.43;;;4.90;99.90;;;;;;2062500;28;20641;-71
2022/04/05 04:19:26;;;;;;;15.73;13.52;;;4.90;99.90;;;;;;2079072;28;20113;-71
2022/04/05 04:20:26;;;;;;;15.05;13.35;;;4.90;99.90;;;;;;2078827;28;20041;-71
2022/04/05 04:21:27;;;;;;;16.05;13.63;;;4.90;99.90;;;;;;2071005;28;20053;-70
2022/04/05 04:22:28;;;;;;;15.80;13.80;;;4.90;99.90;;;;;;2079118;28;20128;-71
2022/04/05 04:23:30;;;;;;;16.42;13.50;;;4.90;99.90;;;;;;2079084;28;20026;-70
2022/04/05 04:24:31;;;;;;;16.10;13.82;;;4.80;99.90;;;;;;2079079;28;20025;-71
2022/04/05 04:25:34;;;;;;;16.48;13.95;;;4.90;99.90;;;;;;2079025;28;20654;-70
2022/04/05 04:26:35;;;;;;;15.45;13.45;;;4.90;99.90;;;;;;2070578;28;20091;-71
2022/04/05 04:27:35;;;;;;;14.75;13.07;;;4.90;99.90;;;;;;2070638;28;20030;-70
2022/04/05 04:28:36;;;;;;;16.58;13.68;;;4.90;99.90;;;;;;2070345;28;20038;-70
2022/04/05 04:29:39;;;;;;;15.48;13.27;;;4.90;99.90;;;;;;2063261;28;20038;-69
2022/04/05 04:30:40;;;;;;;14.50;12.93;;;4.90;99.90;;;;;;2070504;28;20039;-70
2022/04/05 04:31:41;;;;;;;14.23;12.70;;;4.90;99.90;;;;;;2070728;28;20034;-72
2022/04/05 04:32:42;;;;;;;14.25;12.57;;;4.90;99.90;;;;;;2063190;28;20034;-70
2022/04/05 04:33:43;;;;;;;14.32;12.77;;;4.90;99.90;;;;;;2063565;28;20165;-71
2022/04/05 04:34:43;;;;;;;13.45;12.00;;;4.90;99.90;;;;;;2063614;28;20033;-71
2022/04/05 04:35:44;;;;;;;14.70;12.45;;;4.90;99.90;;;;;;2063799;28;20033;-71
2022/04/05 04:36:45;;;;;;;13.77;12.13;;;4.90;99.90;;;;;;2064976;28;20513;-71
2022/04/05 04:37:46;;;;;;;13.68;11.80;;;4.90;99.90;;;;;;2079167;28;20033;-71
2022/04/05 04:38:48;;;;;;;13.90;11.57;;;4.90;99.90;;;;;;2078824;28;20040;-70
2022/04/05 04:39:50;;;;;;;13.93;12.13;;;4.90;99.90;;;;;;2070955;28;20588;-70
2022/04/05 04:40:50;;;;;;;13.10;11.45;;;4.90;99.90;;;;;;2070947;28;20025;-72
2022/04/05 04:41:51;;;;;;;13.05;11.65;;;4.90;99.90;;;;;;2071494;28;20033;-72
2022/04/05 04:42:52;;;;;;;14.18;11.80;;;4.90;99.90;;;;;;2071223;28;20730;-71
2022/04/05 04:43:53;;;;;;;13.32;11.93;;;4.90;99.90;;;;;;2062543;28;20085;-72
2022/04/05 04:44:53;;;;;;;13.23;11.82;;;4.90;99.90;;;;;;2054849;28;20034;-71
2022/04/05 04:45:54;;;;;;;14.07;11.82;;;4.90;99.90;;;;;;2070792;28;20053;-71
2022/04/05 04:46:55;;;;;;;13.35;11.40;;;4.90;99.90;;;;;;2071242;28;20069;-71
2022/04/05 04:47:56;;;;;;;13.88;11.90;;;4.90;99.90;;;;;;2071518;28;20033;-72
2022/04/05 04:48:56;;;;;;;13.18;11.57;;;5.00;99.90;;;;;;2071125;28;20441;-71
2022/04/05 04:49:57;;;;;;;12.27;10.98;;;4.90;99.90;;;;;;2071289;28;20026;-69
2022/04/05 04:50:57;;;;;;;11.98;10.68;;;5.00;99.90;;;;;;2070663;28;20133;-69
2022/04/05 04:51:58;;;;;;;14.80;11.50;;;5.00;99.90;;;;;;2070820;28;20073;-71
2022/04/05 04:52:59;;;;;;;13.77;11.80;;;5.00;99.90;;;;;;2070618;28;20034;-70
2022/04/05 04:53:59;;;;;;;12.65;11.10;;;5.00;99.90;;;;;;2071218;28;20041;-69
2022/04/05 04:55:00;;;;;;;12.60;10.88;;;5.00;99.90;;;;;;2079002;28;20040;-70
2022/04/05 04:56:01;;;;;;;12.57;11.00;;;5.00;99.90;;;;;;2070803;28;20481;-70
2022/04/05 04:57:02;;;;;;;12.10;10.80;;;5.00;99.90;;;;;;2070932;28;20253;-69
2022/04/05 04:58:05;;;;;;;11.93;10.65;;;5.00;99.90;;;;;;2070728;28;20500;-70
2022/04/05 04:59:06;;;;;;;11.35;10.15;;;5.00;99.90;;;;;;2071870;28;20034;-70
2022/04/05 05:00:07;;;;;;;11.73;10.40;;;5.10;99.90;;;;;;2071450;28;20018;-70
2022/04/05 05:01:08;;;;;;;11.45;10.25;;;5.10;99.90;;;;;;2071598;28;20025;-70
2022/04/05 05:02:08;;;;;;;11.50;10.25;;;5.10;99.90;;;;;;2078802;28;20491;-70
2022/04/05 05:03:11;;;;;;;12.20;10.63;;;5.10;99.90;;;;;;2079054;28;20040;-69
2022/04/05 05:04:11;;;;;;;11.60;10.23;;;5.10;99.90;;;;;;2071782;28;20025;-68
2022/04/05 05:05:12;;;;;;;11.85;10.35;;;5.10;99.90;;;;;;2071162;28;20046;-70
2022/04/05 05:06:13;;;;;;;12.10;10.45;;;5.10;99.90;;;;;;2070889;28;20049;-70
2022/04/05 05:07:14;;;;;;;10.93;9.73;;;5.10;99.90;;;;;;2071346;28;20640;-70
2022/04/05 05:08:15;;;;;;;11.57;10.38;;;5.10;99.90;;;;;;2078399;28;20056;-69
2022/04/05 05:09:16;;;;;;;11.77;9.93;;;5.20;99.90;;;;;;2078997;28;20503;-70
2022/04/05 05:10:18;;;;;;;12.02;9.90;;;5.20;99.90;;;;;;2071316;28;20049;-70
2022/04/05 05:11:18;;;;;;;10.73;9.48;;;5.20;99.90;;;;;;2071608;28;20069;-69
2022/04/05 05:12:21;;;;;;;11.63;9.98;;;5.20;99.90;;;;;;2071524;28;20576;-70
2022/04/05 05:13:22;;;;;;;10.35;9.20;;;5.20;99.90;;;;;;2071270;28;20095;-69
2022/04/05 05:14:23;;;;;;;10.75;9.65;;;5.20;99.90;;;;;;2070665;28;20476;-68
2022/04/05 05:15:24;;;;;;;11.13;9.90;;;5.20;99.90;;;;;;2070928;28;20041;-69
2022/04/05 05:16:24;;;;;;;11.68;10.02;;;5.30;99.90;;;;;;2071351;28;20620;-70
2022/04/05 05:17:25;;;;;;;10.35;9.20;;;5.30;99.90;;;;;;2071301;28;20024;-69
2022/04/05 05:18:28;;;;;;;10.52;9.43;;;5.30;99.90;;;;;;2070776;28;20029;-69